createdAt,value
2019-03-30T00:00:07.964Z,77.90
2019-03-30T00:01:05.901Z,77.80
2019-03-30T00:02:05.129Z,77.90
2019-03-30T00:03:07.740Z,78.00
2019-03-30T00:04:05.895Z,78.00
2019-03-30T00:05:05.054Z,78.10
2019-03-30T00:06:05.097Z,78.10
2019-03-30T00:07:07.677Z,78.10
2019-03-30T00:08:05.589Z,78.00
2019-03-30T00:09:05.705Z,78.00
2019-03-30T00:10:10.825Z,78.20
2019-03-30T00:11:05.735Z,78.20
2019-03-30T00:12:05.751Z,78.10
2019-03-30T00:13:08.308Z,78.20
2019-03-30T00:14:05.377Z,78.20
2019-03-30T00:15:05.509Z,78.40
2019-03-30T00:16:05.544Z,78.20
2019-03-30T00:17:05.644Z,78.50
2019-03-30T00:18:05.935Z,78.60
2019-03-30T00:19:05.058Z,78.90
2019-03-30T00:20:05.125Z,78.90
2019-03-30T00:21:07.681Z,79.00
2019-03-30T00:22:05.757Z,79.00
2019-03-30T00:23:05.796Z,78.90
2019-03-30T00:24:05.880Z,78.90
2019-03-30T00:25:08.454Z,79.00
2019-03-30T00:26:05.429Z,78.80
2019-03-30T00:27:05.502Z,79.00
2019-03-30T00:28:05.585Z,79.00
2019-03-30T00:29:08.187Z,79.20
2019-03-30T00:30:05.189Z,79.20
2019-03-30T00:31:05.256Z,79.10
2019-03-30T00:32:07.859Z,79.20
2019-03-30T00:33:08.444Z,79.50
2019-03-30T00:34:08.024Z,79.50
2019-03-30T00:35:10.073Z,79.50
2019-03-30T00:36:07.662Z,79.70
2019-03-30T00:37:08.099Z,79.70
2019-03-30T00:38:07.495Z,79.70
2019-03-30T00:39:07.939Z,79.90
2019-03-30T00:40:08.376Z,79.80
2019-03-30T00:41:05.277Z,79.70
2019-03-30T00:42:07.860Z,79.70
2019-03-30T00:43:05.953Z,79.70
2019-03-30T00:44:07.781Z,79.80
2019-03-30T00:45:08.344Z,79.80
2019-03-30T00:46:07.966Z,79.80
2019-03-30T00:47:05.973Z,79.80
2019-03-30T00:48:04.958Z,79.80
2019-03-30T00:49:07.565Z,79.80
2019-03-30T00:50:08.067Z,79.80
2019-03-30T00:51:07.492Z,79.70
2019-03-30T00:52:08.101Z,79.80
2019-03-30T00:53:05.222Z,79.80
2019-03-30T00:54:07.878Z,79.90
2019-03-30T00:55:08.302Z,79.80
2019-03-30T00:56:07.818Z,79.80
2019-03-30T00:57:05.856Z,79.80
2019-03-30T00:58:05.985Z,79.70
2019-03-30T00:59:07.702Z,79.70
2019-03-30T01:00:10.842Z,79.70
2019-03-30T01:01:05.799Z,79.70
2019-03-30T01:02:05.885Z,79.70
2019-03-30T01:03:08.634Z,79.40
2019-03-30T01:04:08.081Z,79.40
2019-03-30T01:05:07.535Z,79.30
2019-03-30T01:06:05.510Z,79.30
2019-03-30T01:07:08.138Z,79.40
2019-03-30T01:08:07.590Z,79.40
2019-03-30T01:09:05.603Z,79.40
2019-03-30T01:10:05.641Z,79.40
2019-03-30T01:11:05.683Z,79.30
2019-03-30T01:12:05.781Z,79.20
2019-03-30T01:13:05.846Z,79.30
2019-03-30T01:14:11.106Z,79.20
2019-03-30T01:15:07.618Z,79.20
2019-03-30T01:16:05.615Z,79.20
2019-03-30T01:17:05.667Z,79.10
2019-03-30T01:18:08.265Z,79.10
2019-03-30T01:19:05.213Z,79.10
2019-03-30T01:20:05.312Z,79.00
2019-03-30T01:21:05.386Z,78.90
2019-03-30T01:22:07.944Z,78.80
2019-03-30T01:23:05.963Z,78.80
2019-03-30T01:24:07.490Z,78.80
2019-03-30T01:25:05.595Z,78.80
2019-03-30T01:26:05.759Z,78.80
2019-03-30T01:27:05.867Z,78.90
2019-03-30T01:28:08.462Z,78.80
2019-03-30T01:29:07.891Z,79.10
2019-03-30T01:30:23.618Z,79.00
2019-03-30T01:31:05.655Z,79.00
2019-03-30T01:32:10.962Z,79.10
2019-03-30T01:33:08.444Z,79.10
2019-03-30T01:34:05.363Z,79.00
2019-03-30T01:35:05.626Z,79.10
2019-03-30T01:36:05.686Z,78.90
2019-03-30T01:37:08.277Z,79.20
2019-03-30T01:38:05.265Z,79.10
2019-03-30T01:39:08.066Z,79.20
2019-03-30T01:40:05.033Z,79.20
2019-03-30T01:41:05.154Z,79.20
2019-03-30T01:42:05.184Z,79.20
2019-03-30T01:43:05.388Z,79.30
2019-03-30T01:44:05.858Z,79.50
2019-03-30T01:45:07.497Z,79.80
2019-03-30T01:46:05.455Z,79.60
2019-03-30T01:47:05.620Z,79.90
2019-03-30T01:48:08.355Z,79.80
2019-03-30T01:49:05.278Z,79.80
2019-03-30T01:50:18.135Z,79.80
2019-03-30T01:51:05.312Z,79.60
2019-03-30T01:52:05.359Z,79.40
2019-03-30T01:53:05.509Z,79.40
2019-03-30T01:54:08.114Z,79.60
2019-03-30T01:55:05.021Z,79.60
2019-03-30T01:56:05.105Z,79.50
2019-03-30T01:57:05.201Z,79.50
2019-03-30T01:58:07.804Z,79.70
2019-03-30T01:59:05.855Z,79.70
2019-03-30T02:00:08.516Z,79.70
2019-03-30T02:01:05.466Z,79.70
2019-03-30T02:02:05.614Z,79.70
2019-03-30T02:03:05.872Z,79.80
2019-03-30T02:04:06.108Z,79.80
2019-03-30T02:05:07.778Z,79.90
2019-03-30T02:06:05.688Z,79.90
2019-03-30T02:07:05.718Z,79.90
2019-03-30T02:08:08.266Z,80.00
2019-03-30T02:09:05.165Z,80.00
2019-03-30T02:10:05.296Z,80.00
2019-03-30T02:11:05.510Z,80.00
2019-03-30T02:12:05.700Z,80.00
2019-03-30T02:13:05.962Z,80.00
2019-03-30T02:14:07.693Z,80.00
2019-03-30T02:15:05.653Z,80.00
2019-03-30T02:16:05.780Z,80.00
2019-03-30T02:17:05.876Z,80.00
2019-03-30T02:18:06.016Z,80.00
2019-03-30T02:19:05.149Z,80.00
2019-03-30T02:20:07.821Z,79.90
2019-03-30T02:21:05.843Z,79.90
2019-03-30T02:22:08.431Z,79.90
2019-03-30T02:23:07.862Z,79.90
2019-03-30T02:24:05.841Z,79.90
2019-03-30T02:25:05.908Z,79.90
2019-03-30T02:26:05.115Z,79.90
2019-03-30T02:27:07.874Z,79.90
2019-03-30T02:28:08.519Z,79.80
2019-03-30T02:29:08.050Z,79.80
2019-03-30T02:30:05.969Z,79.90
2019-03-30T02:31:05.004Z,79.80
2019-03-30T02:32:05.071Z,79.80
2019-03-30T02:33:07.633Z,79.90
2019-03-30T02:34:05.809Z,79.70
2019-03-30T02:35:08.487Z,79.80
2019-03-30T02:36:08.112Z,79.80
2019-03-30T02:37:05.097Z,79.80
2019-03-30T02:38:05.334Z,79.80
2019-03-30T02:39:07.986Z,79.70
2019-03-30T02:40:07.499Z,79.60
2019-03-30T02:41:05.576Z,79.60
2019-03-30T02:42:08.242Z,79.40
2019-03-30T02:43:05.238Z,79.30
2019-03-30T02:44:05.698Z,79.30
2019-03-30T02:45:08.489Z,79.20
2019-03-30T02:46:08.063Z,79.30
2019-03-30T02:47:05.226Z,79.30
2019-03-30T02:48:07.956Z,79.60
2019-03-30T02:49:05.976Z,79.60
2019-03-30T02:50:05.163Z,79.70
2019-03-30T02:51:05.681Z,79.70
2019-03-30T02:52:05.679Z,79.80
2019-03-30T02:53:05.811Z,80.00
2019-03-30T02:54:08.395Z,80.10
2019-03-30T02:55:05.339Z,80.10
2019-03-30T02:56:05.572Z,80.20
2019-03-30T02:57:05.746Z,80.20
2019-03-30T02:58:08.438Z,80.30
2019-03-30T02:59:07.892Z,80.30
2019-03-30T03:00:11.091Z,80.40
2019-03-30T03:01:05.035Z,80.40
2019-03-30T03:02:05.120Z,80.40
2019-03-30T03:03:05.653Z,80.40
2019-03-30T03:04:05.091Z,80.50
2019-03-30T03:05:05.181Z,80.60
2019-03-30T03:06:05.403Z,80.70
2019-03-30T03:07:08.173Z,81.00
2019-03-30T03:08:05.196Z,80.80
2019-03-30T03:09:05.667Z,81.00
2019-03-30T03:10:05.773Z,80.90
2019-03-30T03:11:05.849Z,81.00
2019-03-30T03:12:05.985Z,81.10
2019-03-30T03:13:05.207Z,81.10
2019-03-30T03:14:05.389Z,81.10
2019-03-30T03:15:08.131Z,81.10
2019-03-30T03:16:05.102Z,81.10
2019-03-30T03:17:05.335Z,81.10
2019-03-30T03:18:05.396Z,81.10
2019-03-30T03:19:05.566Z,81.10
2019-03-30T03:20:08.285Z,81.20
2019-03-30T03:21:09.064Z,81.20
2019-03-30T03:22:05.239Z,81.20
2019-03-30T03:23:05.298Z,81.30
2019-03-30T03:24:05.490Z,81.50
2019-03-30T03:25:05.769Z,81.40
2019-03-30T03:26:08.412Z,81.40
2019-03-30T03:27:05.396Z,81.50
2019-03-30T03:28:05.487Z,81.50
2019-03-30T03:29:05.606Z,81.60
2019-03-30T03:30:05.810Z,81.60
2019-03-30T03:31:08.443Z,81.50
2019-03-30T03:32:05.552Z,81.50
2019-03-30T03:33:05.734Z,81.60
2019-03-30T03:34:05.851Z,81.60
2019-03-30T03:35:06.097Z,81.60
2019-03-30T03:36:07.792Z,81.60
2019-03-30T03:37:05.814Z,81.50
2019-03-30T03:38:08.447Z,81.60
2019-03-30T03:39:05.397Z,81.60
2019-03-30T03:40:08.139Z,81.60
2019-03-30T03:41:05.142Z,81.60
2019-03-30T03:42:05.196Z,81.60
2019-03-30T03:43:05.450Z,81.50
2019-03-30T03:44:05.841Z,81.60
2019-03-30T03:45:05.922Z,81.60
2019-03-30T03:46:04.949Z,81.70
2019-03-30T03:47:07.536Z,81.70
2019-03-30T03:48:05.503Z,81.70
2019-03-30T03:49:08.211Z,81.60
2019-03-30T03:50:07.872Z,81.60
2019-03-30T03:51:24.424Z,81.60
2019-03-30T03:52:05.813Z,81.50
2019-03-30T03:53:05.871Z,81.60
2019-03-30T03:54:05.997Z,81.50
2019-03-30T03:55:10.337Z,81.40
2019-03-30T03:56:07.959Z,81.30
2019-03-30T03:57:05.119Z,81.30
2019-03-30T03:58:07.773Z,81.20
2019-03-30T03:59:05.795Z,81.30
2019-03-30T04:00:08.521Z,81.10
2019-03-30T04:01:08.100Z,81.20
2019-03-30T04:02:05.046Z,81.20
2019-03-30T04:03:05.271Z,81.30
2019-03-30T04:04:05.452Z,81.30
2019-03-30T04:05:05.678Z,81.50
2019-03-30T04:06:08.384Z,81.50
2019-03-30T04:07:05.421Z,81.50
2019-03-30T04:08:05.713Z,81.50
2019-03-30T04:09:08.303Z,81.50
2019-03-30T04:10:05.313Z,81.50
2019-03-30T04:11:05.401Z,81.50
2019-03-30T04:12:05.502Z,81.50
2019-03-30T04:13:07.651Z,81.50
2019-03-30T04:14:08.330Z,81.50
2019-03-30T04:15:05.332Z,81.50
2019-03-30T04:16:10.623Z,81.30
2019-03-30T04:17:08.300Z,81.10
2019-03-30T04:18:05.403Z,81.10
2019-03-30T04:19:08.159Z,81.10
2019-03-30T04:20:07.755Z,81.10
2019-03-30T04:21:06.149Z,81.10
2019-03-30T04:22:07.752Z,81.10
2019-03-30T04:23:05.837Z,81.10
2019-03-30T04:24:05.975Z,81.10
2019-03-30T04:25:07.538Z,81.10
2019-03-30T04:26:08.011Z,81.10
2019-03-30T04:27:05.004Z,81.10
2019-03-30T04:28:05.082Z,81.20
2019-03-30T04:29:05.230Z,81.20
2019-03-30T04:30:05.519Z,81.10
2019-03-30T04:31:13.368Z,81.20
2019-03-30T04:32:05.359Z,81.20
2019-03-30T04:33:08.221Z,81.30
2019-03-30T04:34:05.163Z,81.30
2019-03-30T04:35:05.213Z,81.40
2019-03-30T04:36:07.829Z,81.30
2019-03-30T04:37:05.859Z,81.40
2019-03-30T04:38:05.973Z,81.30
2019-03-30T04:39:05.160Z,80.90
2019-03-30T04:40:07.923Z,81.40
2019-03-30T04:41:11.189Z,81.50
2019-03-30T04:42:07.801Z,81.50
2019-03-30T04:43:05.858Z,81.60
2019-03-30T04:44:05.443Z,81.50
2019-03-30T04:45:05.560Z,81.50
2019-03-30T04:46:10.745Z,81.20
2019-03-30T04:47:05.698Z,81.30
2019-03-30T04:48:10.722Z,81.30
2019-03-30T04:49:05.713Z,81.30
2019-03-30T04:50:05.867Z,81.30
2019-03-30T04:51:06.043Z,81.30
2019-03-30T04:52:10.234Z,81.20
2019-03-30T04:53:07.896Z,81.10
2019-03-30T04:54:08.467Z,81.00
2019-03-30T04:56:05.144Z,80.80
2019-03-30T04:57:07.986Z,81.00
2019-03-30T04:58:09.694Z,81.00
2019-03-30T04:59:05.766Z,81.00
2019-03-30T05:00:05.158Z,81.00
2019-03-30T05:01:05.314Z,81.00
2019-03-30T05:02:07.931Z,80.90
2019-03-30T05:03:05.897Z,80.90
2019-03-30T05:04:05.037Z,80.90
2019-03-30T05:05:05.119Z,81.00
2019-03-30T05:06:07.745Z,81.10
2019-03-30T05:07:05.710Z,81.10
2019-03-30T05:08:06.690Z,81.00
2019-03-30T05:09:06.107Z,81.10
2019-03-30T05:10:10.980Z,81.30
2019-03-30T05:11:07.700Z,81.30
2019-03-30T05:12:05.817Z,81.30
2019-03-30T05:13:05.975Z,81.40
2019-03-30T05:14:05.005Z,81.40
2019-03-30T05:15:05.139Z,81.40
2019-03-30T05:16:07.848Z,81.30
2019-03-30T05:17:08.525Z,81.30
2019-03-30T05:18:05.537Z,81.40
2019-03-30T05:19:05.734Z,81.30
2019-03-30T05:20:08.398Z,81.40
2019-03-30T05:21:07.861Z,81.40
2019-03-30T05:22:16.556Z,81.40
2019-03-30T05:23:08.402Z,81.50
2019-03-30T05:24:07.926Z,81.50
2019-03-30T05:25:08.889Z,81.60
2019-03-30T05:26:05.861Z,81.60
2019-03-30T05:27:08.576Z,81.60
2019-03-30T05:28:05.536Z,81.60
2019-03-30T05:29:05.642Z,81.60
2019-03-30T05:30:08.382Z,81.90
2019-03-30T05:31:05.570Z,81.80
2019-03-30T05:32:05.706Z,81.90
2019-03-30T05:33:08.477Z,82.00
2019-03-30T05:34:05.733Z,81.90
2019-03-30T05:35:06.041Z,81.90
2019-03-30T05:36:05.219Z,81.80
2019-03-30T05:37:08.216Z,81.60
2019-03-30T05:38:07.864Z,81.60
2019-03-30T05:39:05.835Z,81.60
2019-03-30T05:40:05.969Z,81.60
2019-03-30T05:41:05.011Z,81.60
2019-03-30T05:42:05.649Z,81.70
2019-03-30T05:43:05.868Z,81.80
2019-03-30T05:44:07.857Z,82.00
2019-03-30T05:45:05.945Z,82.00
2019-03-30T05:46:05.254Z,82.10
2019-03-30T05:47:05.447Z,82.10
2019-03-30T05:48:10.614Z,82.00
2019-03-30T05:49:05.580Z,82.00
2019-03-30T05:50:08.214Z,81.80
2019-03-30T05:51:05.199Z,81.70
2019-03-30T05:52:10.493Z,81.60
2019-03-30T05:53:08.034Z,81.60
2019-03-30T05:54:05.156Z,81.60
2019-03-30T05:55:05.469Z,81.50
2019-03-30T05:56:05.783Z,81.40
2019-03-30T05:57:06.037Z,81.40
2019-03-30T05:58:07.807Z,81.40
2019-03-30T05:59:08.382Z,81.40
2019-03-30T06:00:05.348Z,81.40
2019-03-30T06:01:08.003Z,81.40
2019-03-30T06:02:06.037Z,81.60
2019-03-30T06:03:05.043Z,81.50
2019-03-30T06:04:05.218Z,81.40
2019-03-30T06:05:05.364Z,81.20
2019-03-30T06:06:08.568Z,80.70
2019-03-30T06:07:05.556Z,80.70
2019-03-30T06:08:05.721Z,54.90
2019-03-30T06:09:05.912Z,80.30
2019-03-30T06:10:05.096Z,80.30
2019-03-30T06:11:07.820Z,80.20
2019-03-30T06:12:05.830Z,80.20
2019-03-30T06:13:05.955Z,80.00
2019-03-30T06:14:05.159Z,79.90
2019-03-30T06:15:05.297Z,79.60
2019-03-30T06:16:05.457Z,79.30
2019-03-30T06:17:08.249Z,78.00
2019-03-30T06:18:11.890Z,77.80
2019-03-30T06:19:05.867Z,77.80
2019-03-30T06:20:05.393Z,77.50
2019-03-30T06:21:05.540Z,77.30
2019-03-30T06:22:05.696Z,77.20
2019-03-30T06:23:05.830Z,76.90
2019-03-30T06:24:06.028Z,76.40
2019-03-30T06:25:05.206Z,76.20
2019-03-30T06:26:05.359Z,75.90
2019-03-30T06:27:05.564Z,75.60
2019-03-30T06:28:08.306Z,75.20
2019-03-30T06:29:07.857Z,75.20
2019-03-30T06:30:05.914Z,75.10
2019-03-30T06:31:05.206Z,74.80
2019-03-30T06:32:08.887Z,74.50
2019-03-30T06:33:05.944Z,74.60
2019-03-30T06:34:05.087Z,74.40
2019-03-30T06:35:05.264Z,74.20
2019-03-30T06:36:05.514Z,73.80
2019-03-30T06:37:08.307Z,73.20
2019-03-30T06:38:05.395Z,73.20
2019-03-30T06:39:13.217Z,72.60
2019-03-30T06:40:05.425Z,72.60
2019-03-30T06:41:08.196Z,72.00
2019-03-30T06:42:07.802Z,71.60
2019-03-30T06:43:08.210Z,71.60
2019-03-30T06:44:05.350Z,71.10
2019-03-30T06:45:08.044Z,70.60
2019-03-30T06:46:10.101Z,70.30
2019-03-30T06:47:07.888Z,69.60
2019-03-30T06:48:05.914Z,66.40
2019-03-30T06:49:04.989Z,69.40
2019-03-30T06:50:07.732Z,69.60
2019-03-30T06:51:05.769Z,69.60
2019-03-30T06:52:08.643Z,69.10
2019-03-30T06:53:08.194Z,68.20
2019-03-30T06:54:05.323Z,68.20
2019-03-30T06:55:05.635Z,67.90
2019-03-30T06:56:08.328Z,66.40
2019-03-30T06:57:05.547Z,66.40
2019-03-30T06:58:08.344Z,65.60
2019-03-30T06:59:05.403Z,65.60
2019-03-30T07:00:10.703Z,65.00
2019-03-30T07:01:08.418Z,64.00
2019-03-30T07:02:08.042Z,63.90
2019-03-30T07:03:05.006Z,63.80
2019-03-30T07:04:11.237Z,63.30
2019-03-30T07:05:08.034Z,62.80
2019-03-30T07:06:07.602Z,62.10
2019-03-30T07:07:05.602Z,62.00
2019-03-30T07:08:05.718Z,61.60
2019-03-30T07:09:05.963Z,61.10
2019-03-30T07:10:05.279Z,62.10
2019-03-30T07:11:21.582Z,60.00
2019-03-30T07:12:08.079Z,60.10
2019-03-30T07:13:05.310Z,60.00
2019-03-30T07:14:18.573Z,59.50
2019-03-30T07:15:05.714Z,59.60
2019-03-30T07:16:05.984Z,59.90
2019-03-30T07:17:08.621Z,59.70
2019-03-30T07:18:05.770Z,59.70
2019-03-30T07:19:08.508Z,59.40
2019-03-30T07:20:08.238Z,59.60
2019-03-30T07:21:05.272Z,59.60
2019-03-30T07:22:05.698Z,59.60
2019-03-30T07:23:13.057Z,59.50
2019-03-30T07:24:10.423Z,59.10
2019-03-30T07:25:05.737Z,59.10
2019-03-30T07:26:05.994Z,59.10
2019-03-30T07:27:07.611Z,58.60
2019-03-30T07:28:08.286Z,58.60
2019-03-30T07:29:05.319Z,58.50
2019-03-30T07:30:08.206Z,57.80
2019-03-30T07:31:05.357Z,57.70
2019-03-30T07:32:05.605Z,57.40
2019-03-30T07:33:05.711Z,57.60
2019-03-30T07:34:08.402Z,58.10
2019-03-30T07:35:05.444Z,58.00
2019-03-30T07:36:05.549Z,57.80
2019-03-30T07:37:05.726Z,57.70
2019-03-30T07:38:06.307Z,57.90
2019-03-30T07:39:08.117Z,57.60
2019-03-30T07:40:05.137Z,57.60
2019-03-30T07:41:05.396Z,57.70
2019-03-30T07:42:05.664Z,58.00
2019-03-30T07:43:05.950Z,57.40
2019-03-30T07:44:05.293Z,57.50
2019-03-30T07:45:05.498Z,57.30
2019-03-30T07:46:05.789Z,57.60
2019-03-30T07:47:05.994Z,57.60
2019-03-30T07:48:05.173Z,57.80
2019-03-30T07:49:05.400Z,57.30
2019-03-30T07:50:08.222Z,57.00
2019-03-30T07:51:07.946Z,56.80
2019-03-30T07:52:06.157Z,56.80
2019-03-30T07:53:05.239Z,56.90
2019-03-30T07:54:08.208Z,56.80
2019-03-30T07:55:05.210Z,56.80
2019-03-30T07:56:09.068Z,56.70
2019-03-30T07:57:17.462Z,56.30
2019-03-30T07:58:08.286Z,56.20
2019-03-30T07:59:05.441Z,56.30
2019-03-30T08:00:05.576Z,56.60
2019-03-30T08:01:08.129Z,56.90
2019-03-30T08:02:05.123Z,56.90
2019-03-30T08:03:07.812Z,56.60
2019-03-30T08:04:08.490Z,56.80
2019-03-30T08:05:08.066Z,56.90
2019-03-30T08:06:05.010Z,56.90
2019-03-30T08:07:07.740Z,57.10
2019-03-30T08:08:05.821Z,57.10
2019-03-30T08:09:05.316Z,56.80
2019-03-30T08:10:05.480Z,56.70
2019-03-30T08:11:08.382Z,56.60
2019-03-30T08:12:05.361Z,56.60
2019-03-30T08:13:08.093Z,56.00
2019-03-30T08:14:07.643Z,55.80
2019-03-30T08:15:08.148Z,55.70
2019-03-30T08:16:10.252Z,55.60
2019-03-30T08:17:05.318Z,55.60
2019-03-30T08:18:05.373Z,55.70
2019-03-30T08:19:06.044Z,55.70
2019-03-30T08:20:05.204Z,55.60
2019-03-30T08:21:07.939Z,55.60
2019-03-30T08:22:05.942Z,55.70
2019-03-30T08:23:05.137Z,55.50
2019-03-30T08:24:07.769Z,55.30
2019-03-30T08:25:05.776Z,55.30
2019-03-30T08:26:06.001Z,54.80
2019-03-30T08:27:07.795Z,54.20
2019-03-30T08:28:08.316Z,54.50
2019-03-30T08:29:05.330Z,54.50
2019-03-30T08:30:05.455Z,54.10
2019-03-30T08:31:10.664Z,53.80
2019-03-30T08:32:05.656Z,53.80
2019-03-30T08:33:05.795Z,53.90
2019-03-30T08:34:05.878Z,53.90
2019-03-30T08:35:05.069Z,53.60
2019-03-30T08:36:07.757Z,53.90
2019-03-30T08:37:08.260Z,54.00
2019-03-30T08:38:05.222Z,54.20
2019-03-30T08:39:05.317Z,54.10
2019-03-30T08:40:05.580Z,54.10
2019-03-30T08:41:05.898Z,54.10
2019-03-30T08:42:07.516Z,54.00
2019-03-30T08:43:05.618Z,54.00
2019-03-30T08:44:06.103Z,54.10
2019-03-30T08:45:05.351Z,53.90
2019-03-30T08:46:05.631Z,54.00
2019-03-30T08:47:08.395Z,53.50
2019-03-30T08:48:05.572Z,53.50
2019-03-30T08:49:05.869Z,53.80
2019-03-30T08:50:07.631Z,54.10
2019-03-30T08:51:08.264Z,53.80
2019-03-30T08:52:05.428Z,53.80
2019-03-30T08:53:05.543Z,53.30
2019-03-30T08:54:08.301Z,53.20
2019-03-30T08:55:05.466Z,53.20
2019-03-30T08:56:05.756Z,53.00
2019-03-30T08:57:13.628Z,52.90
2019-03-30T08:58:05.697Z,52.90
2019-03-30T08:59:05.945Z,53.20
2019-03-30T09:00:05.221Z,52.90
2019-03-30T09:01:07.928Z,52.90
2019-03-30T09:02:09.416Z,53.10
2019-03-30T09:03:05.911Z,53.10
2019-03-30T09:04:10.135Z,53.10
2019-03-30T09:05:07.663Z,53.20
2019-03-30T09:06:08.424Z,53.20
2019-03-30T09:07:05.560Z,53.50
2019-03-30T09:08:05.722Z,53.50
2019-03-30T09:09:08.365Z,53.10
2019-03-30T09:10:20.771Z,52.90
2019-03-30T09:11:05.899Z,52.90
2019-03-30T09:12:05.052Z,53.30
2019-03-30T09:13:05.419Z,52.90
2019-03-30T09:14:05.797Z,53.10
2019-03-30T09:15:06.055Z,53.00
2019-03-30T09:16:07.749Z,52.90
2019-03-30T09:17:05.910Z,53.00
2019-03-30T09:18:05.086Z,52.90
2019-03-30T09:19:05.360Z,52.70
2019-03-30T09:20:05.762Z,52.80
2019-03-30T09:21:05.935Z,52.80
2019-03-30T09:22:07.827Z,52.60
2019-03-30T09:23:08.436Z,52.90
2019-03-30T09:24:10.562Z,53.00
2019-03-30T09:25:05.852Z,53.10
2019-03-30T09:26:05.966Z,53.10
2019-03-30T09:27:05.117Z,52.50
2019-03-30T09:28:05.285Z,52.10
2019-03-30T09:29:05.677Z,51.80
2019-03-30T09:30:08.498Z,51.20
2019-03-30T09:31:05.532Z,51.20
2019-03-30T09:32:15.099Z,50.80
2019-03-30T09:33:05.435Z,50.10
2019-03-30T09:34:05.607Z,50.60
2019-03-30T09:35:10.838Z,50.00
2019-03-30T09:36:08.544Z,49.80
2019-03-30T09:37:05.713Z,49.80
2019-03-30T09:38:05.796Z,50.10
2019-03-30T09:39:08.551Z,50.20
2019-03-30T09:40:05.769Z,50.20
2019-03-30T09:41:05.916Z,49.90
2019-03-30T09:42:05.043Z,49.90
2019-03-30T09:43:05.256Z,49.60
2019-03-30T09:44:05.676Z,49.40
2019-03-30T09:45:05.773Z,48.80
2019-03-30T09:46:07.617Z,48.50
2019-03-30T09:47:05.707Z,48.60
2019-03-30T09:48:05.973Z,48.40
2019-03-30T09:49:05.265Z,47.60
2019-03-30T09:50:05.428Z,47.10
2019-03-30T09:51:08.074Z,46.40
2019-03-30T09:52:05.140Z,46.50
2019-03-30T09:53:05.307Z,46.60
2019-03-30T09:54:05.605Z,46.40
2019-03-30T09:55:05.891Z,46.40
2019-03-30T09:56:05.047Z,46.20
2019-03-30T09:57:05.257Z,46.00
2019-03-30T09:58:05.356Z,45.10
2019-03-30T09:59:05.609Z,45.20
2019-03-30T10:00:08.419Z,44.90
2019-03-30T10:01:08.053Z,44.90
2019-03-30T10:02:05.212Z,44.80
2019-03-30T10:03:06.668Z,45.20
2019-03-30T10:04:05.055Z,45.60
2019-03-30T10:05:05.370Z,45.80
2019-03-30T10:06:05.581Z,45.20
2019-03-30T10:07:05.766Z,44.40
2019-03-30T10:08:11.069Z,44.60
2019-03-30T10:09:07.635Z,43.70
2019-03-30T10:10:08.223Z,43.30
2019-03-30T10:11:07.803Z,43.10
2019-03-30T10:12:05.775Z,43.10
2019-03-30T10:13:08.428Z,41.90
2019-03-30T10:14:05.495Z,41.90
2019-03-30T10:15:08.293Z,42.40
2019-03-30T10:16:05.344Z,42.40
2019-03-30T10:17:08.147Z,41.60
2019-03-30T10:18:05.150Z,41.00
2019-03-30T10:19:05.417Z,41.40
2019-03-30T10:20:05.833Z,41.20
2019-03-30T10:21:07.702Z,41.10
2019-03-30T10:22:05.837Z,41.00
2019-03-30T10:23:05.096Z,40.80
2019-03-30T10:24:05.337Z,41.60
2019-03-30T10:25:08.014Z,41.40
2019-03-30T10:26:05.065Z,41.40
2019-03-30T10:27:05.301Z,40.70
2019-03-30T10:28:05.583Z,40.20
2019-03-30T10:29:05.819Z,40.10
2019-03-30T10:30:06.044Z,40.40
2019-03-30T10:31:05.158Z,40.50
2019-03-30T10:32:07.950Z,40.30
2019-03-30T10:33:08.452Z,40.80
2019-03-30T10:34:07.976Z,40.90
2019-03-30T10:35:06.026Z,40.90
2019-03-30T10:36:07.662Z,41.00
2019-03-30T10:37:13.319Z,40.10
2019-03-30T10:38:05.393Z,40.10
2019-03-30T10:39:10.648Z,39.20
2019-03-30T10:40:05.646Z,39.20
2019-03-30T10:41:05.881Z,39.00
2019-03-30T10:42:05.142Z,38.90
2019-03-30T10:43:10.622Z,39.20
2019-03-30T10:44:08.371Z,39.00
2019-03-30T10:45:08.042Z,38.80
2019-03-30T10:46:05.136Z,38.90
2019-03-30T10:47:05.480Z,38.70
2019-03-30T10:48:05.758Z,38.70
2019-03-30T10:49:08.385Z,38.70
2019-03-30T10:50:05.509Z,38.70
2019-03-30T10:51:05.825Z,39.10
2019-03-30T10:52:05.954Z,38.70
2019-03-30T10:53:07.702Z,38.70
2019-03-30T10:54:05.700Z,38.70
2019-03-30T10:55:08.367Z,37.80
2019-03-30T10:56:05.430Z,37.90
2019-03-30T10:57:05.776Z,38.40
2019-03-30T10:58:08.466Z,38.20
2019-03-30T10:59:07.908Z,37.70
2019-03-30T11:00:08.737Z,37.80
2019-03-30T11:01:08.349Z,36.90
2019-03-30T11:02:05.404Z,36.80
2019-03-30T11:03:08.255Z,37.30
2019-03-30T11:04:05.263Z,37.30
2019-03-30T11:05:05.380Z,37.10
2019-03-30T11:06:05.508Z,37.40
2019-03-30T11:07:05.299Z,37.10
2019-03-30T11:08:05.495Z,36.90
2019-03-30T11:09:05.724Z,36.70
2019-03-30T11:10:05.967Z,36.50
2019-03-30T11:11:05.100Z,36.80
2019-03-30T11:12:05.562Z,36.70
2019-03-30T11:13:05.262Z,36.70
2019-03-30T11:14:08.004Z,36.90
2019-03-30T11:15:07.597Z,37.20
2019-03-30T11:16:05.751Z,37.10
2019-03-30T11:17:08.639Z,37.10
2019-03-30T11:18:05.798Z,37.10
2019-03-30T11:19:05.973Z,36.50
2019-03-30T11:20:07.717Z,36.20
2019-03-30T11:21:05.833Z,36.20
2019-03-30T11:22:05.886Z,36.90
2019-03-30T11:23:05.024Z,36.50
2019-03-30T11:24:07.202Z,36.30
2019-03-30T11:25:09.116Z,35.50
2019-03-30T11:26:05.267Z,35.70
2019-03-30T11:27:05.411Z,35.20
2019-03-30T11:28:05.608Z,35.20
2019-03-30T11:29:05.745Z,35.50
2019-03-30T11:30:05.891Z,34.90
2019-03-30T11:31:06.010Z,35.50
2019-03-30T11:32:05.801Z,36.00
2019-03-30T11:33:05.886Z,35.90
2019-03-30T11:34:05.893Z,36.20
2019-03-30T11:35:07.571Z,36.00
2019-03-30T11:36:10.699Z,35.40
2019-03-30T11:37:05.814Z,35.50
2019-03-30T11:38:05.088Z,35.30
2019-03-30T11:39:07.827Z,35.40
2019-03-30T11:40:05.893Z,35.40
2019-03-30T11:41:04.967Z,35.00
2019-03-30T11:42:05.085Z,34.40
2019-03-30T11:43:05.224Z,35.00
2019-03-30T11:44:05.942Z,35.60
2019-03-30T11:45:05.206Z,35.70
2019-03-30T11:46:05.491Z,35.70
2019-03-30T11:47:08.294Z,34.80
2019-03-30T11:48:05.436Z,34.60
2019-03-30T11:49:05.650Z,34.40
2019-03-30T11:50:05.714Z,33.80
2019-03-30T11:51:05.899Z,34.20
2019-03-30T11:52:05.058Z,34.30
2019-03-30T11:53:05.163Z,34.40
2019-03-30T11:54:08.079Z,34.30
2019-03-30T11:55:05.103Z,34.20
2019-03-30T11:56:07.761Z,34.80
2019-03-30T11:57:08.290Z,33.50
2019-03-30T11:58:05.316Z,33.50
2019-03-30T11:59:05.455Z,33.70
2019-03-30T12:00:05.647Z,33.90
2019-03-30T12:01:05.816Z,33.70
2019-03-30T12:02:06.059Z,33.60
2019-03-30T12:03:10.257Z,33.40
2019-03-30T12:04:05.241Z,33.50
2019-03-30T12:05:05.349Z,33.70
2019-03-30T12:06:05.567Z,33.30
2019-03-30T12:07:05.724Z,33.10
2019-03-30T12:08:05.876Z,33.00
2019-03-30T12:09:05.084Z,33.20
2019-03-30T12:10:05.236Z,33.30
2019-03-30T12:11:05.353Z,33.70
2019-03-30T12:12:05.573Z,33.50
2019-03-30T12:13:05.794Z,33.40
2019-03-30T12:14:05.929Z,33.50
2019-03-30T12:15:05.012Z,33.80
2019-03-30T12:16:05.911Z,33.60
2019-03-30T12:17:05.241Z,33.10
2019-03-30T12:18:05.494Z,32.90
2019-03-30T12:19:08.284Z,32.00
2019-03-30T12:20:07.912Z,32.50
2019-03-30T12:21:08.446Z,32.40
2019-03-30T12:22:08.101Z,32.90
2019-03-30T12:23:05.169Z,32.90
2019-03-30T12:24:08.063Z,32.80
2019-03-30T12:25:05.374Z,32.80
2019-03-30T12:26:05.523Z,32.90
2019-03-30T12:27:09.292Z,33.30
2019-03-30T12:28:14.026Z,33.50
2019-03-30T12:29:05.057Z,33.50
2019-03-30T12:30:05.778Z,33.20
2019-03-30T12:31:05.043Z,32.70
2019-03-30T12:32:05.794Z,33.30
2019-03-30T12:33:06.024Z,33.40
2019-03-30T12:34:07.682Z,33.90
2019-03-30T12:35:10.800Z,33.60
2019-03-30T12:36:05.804Z,33.60
2019-03-30T12:37:07.762Z,32.90
2019-03-30T12:38:05.811Z,32.90
2019-03-30T12:39:07.698Z,33.70
2019-03-30T12:40:05.758Z,33.70
2019-03-30T12:41:07.807Z,34.20
2019-03-30T12:42:08.270Z,33.30
2019-03-30T12:43:05.384Z,33.30
2019-03-30T12:44:05.702Z,33.60
2019-03-30T12:45:05.860Z,34.00
2019-03-30T12:46:07.637Z,33.70
2019-03-30T12:47:10.759Z,33.50
2019-03-30T12:48:08.393Z,33.20
2019-03-30T12:49:07.920Z,33.20
2019-03-30T12:50:05.878Z,33.30
2019-03-30T12:51:05.081Z,33.00
2019-03-30T12:52:10.236Z,33.30
2019-03-30T12:53:07.809Z,33.30